Terminal Aerodrome Forecast
Issued by NWS

Home | Current Version | Previous Version | Text Only | Print | Product List | Glossary On
Versions: 1 2 3 4 5 6 7 8 9 10 11 12 13 14 15 16 17
000
FTUS41 KLWX 172320
TAFMTN
TAF
KMTN 172320Z 1800/1824 VRB03KT P6SM OVC070
     FM180900 00000KT 6SM BR SCT050
     FM181200 24004KT P6SM SCT050
      AMD NOT SKED 1802/1812=

USA.gov is the U.S. government's official web portal to all federal, state and local government web resources and services.